sensor_id;sensor_type;location;lat;lon;timestamp;temperature;humidity
14737;DHT22;7459;53.590;10.062;2023-12-29T00:01:57;10.30;99.90
14737;DHT22;7459;53.590;10.062;2023-12-29T00:04:25;10.30;99.90
14737;DHT22;7459;53.590;10.062;2023-12-29T00:06:51;10.20;99.90
14737;DHT22;7459;53.590;10.062;2023-12-29T00:09:16;10.10;99.90
14737;DHT22;7459;53.590;10.062;2023-12-29T00:11:46;10.10;99.90
14737;DHT22;7459;53.590;10.062;2023-12-29T00:14:12;10.00;99.90
14737;DHT22;7459;53.590;10.062;2023-12-29T00:16:38;9.90;99.90
14737;DHT22;7459;53.590;10.062;2023-12-29T00:19:04;9.90;99.90
14737;DHT22;7459;53.590;10.062;2023-12-29T00:21:29;9.90;99.90
14737;DHT22;7459;53.590;10.062;2023-12-29T00:23:55;9.90;99.90
14737;DHT22;7459;53.590;10.062;2023-12-29T00:26:22;9.80;99.90
14737;DHT22;7459;53.590;10.062;2023-12-29T00:28:47;9.80;99.90
14737;DHT22;7459;53.590;10.062;2023-12-29T00:31:16;9.80;99.90
14737;DHT22;7459;53.590;10.062;2023-12-29T00:33:45;9.80;99.90
14737;DHT22;7459;53.590;10.062;2023-12-29T00:36:18;9.70;99.90
14737;DHT22;7459;53.590;10.062;2023-12-29T00:38:44;9.70;99.90
14737;DHT22;7459;53.590;10.062;2023-12-29T00:41:10;9.70;99.90
14737;DHT22;7459;53.590;10.062;2023-12-29T00:43:36;9.80;99.90
14737;DHT22;7459;53.590;10.062;2023-12-29T00:46:03;9.70;99.90
14737;DHT22;7459;53.590;10.062;2023-12-29T00:48:29;9.80;99.90
14737;DHT22;7459;53.590;10.062;2023-12-29T00:50:55;9.80;99.90
14737;DHT22;7459;53.590;10.062;2023-12-29T00:53:21;9.70;99.90
14737;DHT22;7459;53.590;10.062;2023-12-29T00:55:46;9.70;99.90
14737;DHT22;7459;53.590;10.062;2023-12-29T00:58:12;9.80;99.90
14737;DHT22;7459;53.590;10.062;2023-12-29T01:00:38;9.70;99.90
14737;DHT22;7459;53.590;10.062;2023-12-29T01:03:04;9.70;99.90
14737;DHT22;7459;53.590;10.062;2023-12-29T01:05:30;9.60;99.90
14737;DHT22;7459;53.590;10.062;2023-12-29T01:07:55;9.70;99.90
14737;DHT22;7459;53.590;10.062;2023-12-29T01:10:21;9.70;99.90
14737;DHT22;7459;53.590;10.062;2023-12-29T01:12:47;9.70;99.90
14737;DHT22;7459;53.590;10.062;2023-12-29T01:15:13;9.70;99.90
14737;DHT22;7459;53.590;10.062;2023-12-29T01:17:39;9.70;99.90
14737;DHT22;7459;53.590;10.062;2023-12-29T01:20:05;9.70;99.90
14737;DHT22;7459;53.590;10.062;2023-12-29T01:22:31;9.70;99.90
14737;DHT22;7459;53.590;10.062;2023-12-29T01:24:59;9.70;99.90
14737;DHT22;7459;53.590;10.062;2023-12-29T01:27:25;9.70;99.90
14737;DHT22;7459;53.590;10.062;2023-12-29T01:29:51;9.70;99.90
14737;DHT22;7459;53.590;10.062;2023-12-29T01:32:18;9.70;99.90
14737;DHT22;7459;53.590;10.062;2023-12-29T01:34:47;9.70;99.90
14737;DHT22;7459;53.590;10.062;2023-12-29T01:37:12;9.60;99.90
14737;DHT22;7459;53.590;10.062;2023-12-29T01:39:38;9.70;99.90
14737;DHT22;7459;53.590;10.062;2023-12-29T01:42:05;9.70;99.90
14737;DHT22;7459;53.590;10.062;2023-12-29T01:44:32;9.60;99.90
14737;DHT22;7459;53.590;10.062;2023-12-29T01:46:59;9.70;99.90
14737;DHT22;7459;53.590;10.062;2023-12-29T01:49:26;9.60;99.90
14737;DHT22;7459;53.590;10.062;2023-12-29T01:51:57;9.60;99.90
14737;DHT22;7459;53.590;10.062;2023-12-29T01:54:25;9.60;99.90
14737;DHT22;7459;53.590;10.062;2023-12-29T01:56:54;9.60;99.90
14737;DHT22;7459;53.590;10.062;2023-12-29T01:59:23;9.60;99.90
14737;DHT22;7459;53.590;10.062;2023-12-29T02:01:50;9.70;99.90
14737;DHT22;7459;53.590;10.062;2023-12-29T02:04:17;9.60;99.90
14737;DHT22;7459;53.590;10.062;2023-12-29T02:06:43;9.70;99.90
14737;DHT22;7459;53.590;10.062;2023-12-29T02:09:09;9.70;99.90
14737;DHT22;7459;53.590;10.062;2023-12-29T02:11:34;9.70;99.90
14737;DHT22;7459;53.590;10.062;2023-12-29T02:14:00;9.70;99.90
14737;DHT22;7459;53.590;10.062;2023-12-29T02:16:38;9.70;99.90
14737;DHT22;7459;53.590;10.062;2023-12-29T02:19:24;9.70;99.90
14737;DHT22;7459;53.590;10.062;2023-12-29T02:21:55;9.70;99.90
14737;DHT22;7459;53.590;10.062;2023-12-29T02:24:21;9.70;99.90
14737;DHT22;7459;53.590;10.062;2023-12-29T02:26:50;9.80;99.90
14737;DHT22;7459;53.590;10.062;2023-12-29T02:29:25;9.80;99.90
14737;DHT22;7459;53.590;10.062;2023-12-29T02:31:53;9.80;99.90
14737;DHT22;7459;53.590;10.062;2023-12-29T02:34:22;9.80;99.90
14737;DHT22;7459;53.590;10.062;2023-12-29T02:36:49;9.90;99.90
14737;DHT22;7459;53.590;10.062;2023-12-29T02:39:16;9.90;99.90
14737;DHT22;7459;53.590;10.062;2023-12-29T02:41:42;9.90;99.90
14737;DHT22;7459;53.590;10.062;2023-12-29T02:44:08;9.80;99.90
14737;DHT22;7459;53.590;10.062;2023-12-29T02:46:33;9.80;99.90
14737;DHT22;7459;53.590;10.062;2023-12-29T02:48:59;9.80;99.90
14737;DHT22;7459;53.590;10.062;2023-12-29T02:51:25;9.80;99.90
14737;DHT22;7459;53.590;10.062;2023-12-29T02:53:51;9.80;99.90
14737;DHT22;7459;53.590;10.062;2023-12-29T02:56:16;9.80;99.90
14737;DHT22;7459;53.590;10.062;2023-12-29T02:58:42;9.80;99.90
14737;DHT22;7459;53.590;10.062;2023-12-29T03:01:08;9.80;99.90
14737;DHT22;7459;53.590;10.062;2023-12-29T03:06:09;9.90;99.90
14737;DHT22;7459;53.590;10.062;2023-12-29T03:08:36;9.90;99.90
14737;DHT22;7459;53.590;10.062;2023-12-29T03:11:02;9.90;99.90
14737;DHT22;7459;53.590;10.062;2023-12-29T03:13:27;9.90;99.90
14737;DHT22;7459;53.590;10.062;2023-12-29T03:15:53;9.90;99.90
14737;DHT22;7459;53.590;10.062;2023-12-29T03:18:19;10.00;99.90
14737;DHT22;7459;53.590;10.062;2023-12-29T03:20:44;10.00;99.90
14737;DHT22;7459;53.590;10.062;2023-12-29T03:23:10;9.90;99.90
14737;DHT22;7459;53.590;10.062;2023-12-29T03:25:36;9.90;99.90
14737;DHT22;7459;53.590;10.062;2023-12-29T03:28:01;9.90;99.90
14737;DHT22;7459;53.590;10.062;2023-12-29T03:30:27;9.90;99.90
14737;DHT22;7459;53.590;10.062;2023-12-29T03:32:53;9.90;99.90
14737;DHT22;7459;53.590;10.062;2023-12-29T03:35:18;9.90;99.90
14737;DHT22;7459;53.590;10.062;2023-12-29T03:37:44;9.90;99.90
14737;DHT22;7459;53.590;10.062;2023-12-29T03:40:10;9.90;99.90
14737;DHT22;7459;53.590;10.062;2023-12-29T03:42:36;9.80;99.90
14737;DHT22;7459;53.590;10.062;2023-12-29T03:45:01;9.80;99.90
14737;DHT22;7459;53.590;10.062;2023-12-29T03:47:27;9.80;99.90
14737;DHT22;7459;53.590;10.062;2023-12-29T03:49:53;9.70;99.90
14737;DHT22;7459;53.590;10.062;2023-12-29T03:52:19;9.80;99.90
14737;DHT22;7459;53.590;10.062;2023-12-29T03:54:44;9.70;99.90
14737;DHT22;7459;53.590;10.062;2023-12-29T03:57:10;9.70;99.90
14737;DHT22;7459;53.590;10.062;2023-12-29T03:59:37;9.70;99.90
14737;DHT22;7459;53.590;10.062;2023-12-29T04:02:03;9.70;99.90
14737;DHT22;7459;53.590;10.062;2023-12-29T04:04:28;9.70;99.90
14737;DHT22;7459;53.590;10.062;2023-12-29T04:06:54;9.60;99.90
14737;DHT22;7459;53.590;10.062;2023-12-29T04:09:20;9.60;99.90
14737;DHT22;7459;53.590;10.062;2023-12-29T04:11:46;9.60;99.90
14737;DHT22;7459;53.590;10.062;2023-12-29T04:14:11;9.60;99.90
14737;DHT22;7459;53.590;10.062;2023-12-29T04:16:38;9.60;99.90
14737;DHT22;7459;53.590;10.062;2023-12-29T04:19:04;9.60;99.90
14737;DHT22;7459;53.590;10.062;2023-12-29T04:21:30;9.50;99.90
14737;DHT22;7459;53.590;10.062;2023-12-29T04:23:56;9.40;99.90
14737;DHT22;7459;53.590;10.062;2023-12-29T04:26:21;9.30;99.90
14737;DHT22;7459;53.590;10.062;2023-12-29T04:28:47;9.00;99.90
14737;DHT22;7459;53.590;10.062;2023-12-29T04:31:13;8.70;99.90
14737;DHT22;7459;53.590;10.062;2023-12-29T04:33:38;8.60;99.90
14737;DHT22;7459;53.590;10.062;2023-12-29T04:36:04;8.40;99.90
14737;DHT22;7459;53.590;10.062;2023-12-29T04:38:30;8.30;99.90
14737;DHT22;7459;53.590;10.062;2023-12-29T04:40:56;8.30;99.90
14737;DHT22;7459;53.590;10.062;2023-12-29T04:43:21;8.20;99.90
14737;DHT22;7459;53.590;10.062;2023-12-29T04:45:47;8.20;99.90
14737;DHT22;7459;53.590;10.062;2023-12-29T04:48:13;8.20;99.90
14737;DHT22;7459;53.590;10.062;2023-12-29T04:50:39;8.20;99.90
14737;DHT22;7459;53.590;10.062;2023-12-29T04:53:04;8.20;99.90
14737;DHT22;7459;53.590;10.062;2023-12-29T04:55:30;8.20;99.90
14737;DHT22;7459;53.590;10.062;2023-12-29T04:57:56;8.20;99.90
14737;DHT22;7459;53.590;10.062;2023-12-29T05:00:21;8.20;99.90
14737;DHT22;7459;53.590;10.062;2023-12-29T05:02:47;8.20;99.90
14737;DHT22;7459;53.590;10.062;2023-12-29T05:05:13;8.10;99.90
14737;DHT22;7459;53.590;10.062;2023-12-29T05:07:38;8.10;99.90
14737;DHT22;7459;53.590;10.062;2023-12-29T05:10:04;8.00;99.90
14737;DHT22;7459;53.590;10.062;2023-12-29T05:12:31;8.00;99.90
14737;DHT22;7459;53.590;10.062;2023-12-29T05:14:56;8.00;99.90
14737;DHT22;7459;53.590;10.062;2023-12-29T05:17:22;7.90;99.90
14737;DHT22;7459;53.590;10.062;2023-12-29T05:19:47;8.00;99.90
14737;DHT22;7459;53.590;10.062;2023-12-29T05:22:13;8.00;99.90
14737;DHT22;7459;53.590;10.062;2023-12-29T05:24:42;8.00;99.90
14737;DHT22;7459;53.590;10.062;2023-12-29T05:27:08;8.00;99.90
14737;DHT22;7459;53.590;10.062;2023-12-29T05:29:34;8.00;99.90
14737;DHT22;7459;53.590;10.062;2023-12-29T05:32:00;8.00;99.90
14737;DHT22;7459;53.590;10.062;2023-12-29T05:34:27;8.10;99.90
14737;DHT22;7459;53.590;10.062;2023-12-29T05:36:53;8.10;99.90
14737;DHT22;7459;53.590;10.062;2023-12-29T05:39:19;8.10;99.90
14737;DHT22;7459;53.590;10.062;2023-12-29T05:41:44;8.10;99.90
14737;DHT22;7459;53.590;10.062;2023-12-29T05:44:10;8.10;99.90
14737;DHT22;7459;53.590;10.062;2023-12-29T05:46:36;8.10;99.90
14737;DHT22;7459;53.590;10.062;2023-12-29T05:49:02;8.10;99.90
14737;DHT22;7459;53.590;10.062;2023-12-29T05:51:27;8.10;99.90
14737;DHT22;7459;53.590;10.062;2023-12-29T05:53:53;8.10;99.90
14737;DHT22;7459;53.590;10.062;2023-12-29T05:56:19;8.20;99.90
14737;DHT22;7459;53.590;10.062;2023-12-29T05:58:45;8.20;99.90
14737;DHT22;7459;53.590;10.062;2023-12-29T06:01:11;8.20;99.90
14737;DHT22;7459;53.590;10.062;2023-12-29T06:03:37;8.30;99.90
14737;DHT22;7459;53.590;10.062;2023-12-29T06:06:03;8.20;99.90
14737;DHT22;7459;53.590;10.062;2023-12-29T06:08:28;8.30;99.90
14737;DHT22;7459;53.590;10.062;2023-12-29T06:10:54;8.30;99.90
14737;DHT22;7459;53.590;10.062;2023-12-29T06:13:20;8.30;99.90
14737;DHT22;7459;53.590;10.062;2023-12-29T06:15:45;8.40;99.90
14737;DHT22;7459;53.590;10.062;2023-12-29T06:18:11;8.40;99.90
14737;DHT22;7459;53.590;10.062;2023-12-29T06:20:37;8.40;99.90
14737;DHT22;7459;53.590;10.062;2023-12-29T06:23:03;8.50;99.90
14737;DHT22;7459;53.590;10.062;2023-12-29T06:25:28;8.50;99.90
14737;DHT22;7459;53.590;10.062;2023-12-29T06:27:54;8.60;99.90
14737;DHT22;7459;53.590;10.062;2023-12-29T06:30:20;8.60;99.90
14737;DHT22;7459;53.590;10.062;2023-12-29T06:32:46;8.60;99.90
14737;DHT22;7459;53.590;10.062;2023-12-29T06:35:12;8.70;99.90
14737;DHT22;7459;53.590;10.062;2023-12-29T06:37:38;8.60;99.90
14737;DHT22;7459;53.590;10.062;2023-12-29T06:40:07;8.70;99.90
14737;DHT22;7459;53.590;10.062;2023-12-29T06:42:33;8.70;99.90
14737;DHT22;7459;53.590;10.062;2023-12-29T06:44:59;8.60;99.90
14737;DHT22;7459;53.590;10.062;2023-12-29T06:47:24;8.60;99.90
14737;DHT22;7459;53.590;10.062;2023-12-29T06:49:50;8.60;99.90
14737;DHT22;7459;53.590;10.062;2023-12-29T06:52:16;8.60;99.90
14737;DHT22;7459;53.590;10.062;2023-12-29T06:54:42;8.60;99.90
14737;DHT22;7459;53.590;10.062;2023-12-29T06:57:08;8.60;99.90
14737;DHT22;7459;53.590;10.062;2023-12-29T06:59:34;8.70;99.90
14737;DHT22;7459;53.590;10.062;2023-12-29T07:01:59;8.60;99.90
14737;DHT22;7459;53.590;10.062;2023-12-29T07:04:25;8.70;99.90
14737;DHT22;7459;53.590;10.062;2023-12-29T07:06:51;8.60;99.90
14737;DHT22;7459;53.590;10.062;2023-12-29T07:09:16;8.70;99.90
14737;DHT22;7459;53.590;10.062;2023-12-29T07:11:47;8.70;99.90
14737;DHT22;7459;53.590;10.062;2023-12-29T07:14:14;8.70;99.90
14737;DHT22;7459;53.590;10.062;2023-12-29T07:16:40;8.80;99.90
14737;DHT22;7459;53.590;10.062;2023-12-29T07:19:05;8.80;99.90
14737;DHT22;7459;53.590;10.062;2023-12-29T07:21:31;8.80;99.90
14737;DHT22;7459;53.590;10.062;2023-12-29T07:23:57;8.80;99.90
14737;DHT22;7459;53.590;10.062;2023-12-29T07:26:22;8.80;99.90
14737;DHT22;7459;53.590;10.062;2023-12-29T07:28:48;8.90;99.90
14737;DHT22;7459;53.590;10.062;2023-12-29T07:31:22;8.90;99.90
14737;DHT22;7459;53.590;10.062;2023-12-29T07:33:47;8.90;99.90
14737;DHT22;7459;53.590;10.062;2023-12-29T07:36:14;9.00;99.90
14737;DHT22;7459;53.590;10.062;2023-12-29T07:38:40;9.10;99.90
14737;DHT22;7459;53.590;10.062;2023-12-29T07:41:05;9.10;99.90
14737;DHT22;7459;53.590;10.062;2023-12-29T07:43:35;9.00;99.90
14737;DHT22;7459;53.590;10.062;2023-12-29T07:46:01;9.00;99.90
14737;DHT22;7459;53.590;10.062;2023-12-29T07:48:27;9.00;99.90
14737;DHT22;7459;53.590;10.062;2023-12-29T07:50:53;9.10;99.90
14737;DHT22;7459;53.590;10.062;2023-12-29T07:53:19;9.10;99.90
14737;DHT22;7459;53.590;10.062;2023-12-29T07:55:45;9.10;99.90
14737;DHT22;7459;53.590;10.062;2023-12-29T07:58:12;9.10;99.90
14737;DHT22;7459;53.590;10.062;2023-12-29T08:00:38;9.10;99.90
14737;DHT22;7459;53.590;10.062;2023-12-29T08:03:04;9.10;99.90
14737;DHT22;7459;53.590;10.062;2023-12-29T08:05:31;9.10;99.90
14737;DHT22;7459;53.590;10.062;2023-12-29T08:07:56;9.10;99.90
14737;DHT22;7459;53.590;10.062;2023-12-29T08:10:22;9.10;99.90
14737;DHT22;7459;53.590;10.062;2023-12-29T08:12:47;9.10;99.90
14737;DHT22;7459;53.590;10.062;2023-12-29T08:15:13;9.10;99.90
14737;DHT22;7459;53.590;10.062;2023-12-29T08:17:39;9.20;99.90
14737;DHT22;7459;53.590;10.062;2023-12-29T08:20:05;9.20;99.90
14737;DHT22;7459;53.590;10.062;2023-12-29T08:22:31;9.20;99.90
14737;DHT22;7459;53.590;10.062;2023-12-29T08:24:58;9.30;99.90
14737;DHT22;7459;53.590;10.062;2023-12-29T08:27:25;9.20;99.90
14737;DHT22;7459;53.590;10.062;2023-12-29T08:29:52;9.30;99.90
14737;DHT22;7459;53.590;10.062;2023-12-29T08:32:19;9.30;99.90
14737;DHT22;7459;53.590;10.062;2023-12-29T08:34:46;9.20;99.90
14737;DHT22;7459;53.590;10.062;2023-12-29T08:37:11;9.20;99.90
14737;DHT22;7459;53.590;10.062;2023-12-29T08:39:38;9.20;99.90
14737;DHT22;7459;53.590;10.062;2023-12-29T08:42:04;9.20;99.90
14737;DHT22;7459;53.590;10.062;2023-12-29T08:44:31;9.20;99.90
14737;DHT22;7459;53.590;10.062;2023-12-29T08:46:58;9.30;99.90
14737;DHT22;7459;53.590;10.062;2023-12-29T08:49:24;9.30;99.90
14737;DHT22;7459;53.590;10.062;2023-12-29T08:51:49;9.30;99.90
14737;DHT22;7459;53.590;10.062;2023-12-29T08:54:15;9.50;99.90
14737;DHT22;7459;53.590;10.062;2023-12-29T08:56:41;9.70;99.90
14737;DHT22;7459;53.590;10.062;2023-12-29T08:59:06;9.50;99.90
14737;DHT22;7459;53.590;10.062;2023-12-29T09:01:32;9.50;99.90
14737;DHT22;7459;53.590;10.062;2023-12-29T09:03:58;9.80;99.90
14737;DHT22;7459;53.590;10.062;2023-12-29T09:06:25;9.50;99.90
14737;DHT22;7459;53.590;10.062;2023-12-29T09:08:51;9.60;99.90
14737;DHT22;7459;53.590;10.062;2023-12-29T09:11:17;9.50;99.90
14737;DHT22;7459;53.590;10.062;2023-12-29T09:13:42;9.60;99.90
14737;DHT22;7459;53.590;10.062;2023-12-29T09:16:08;9.50;99.90
14737;DHT22;7459;53.590;10.062;2023-12-29T09:18:34;9.50;99.90
14737;DHT22;7459;53.590;10.062;2023-12-29T09:20:59;9.50;99.90
14737;DHT22;7459;53.590;10.062;2023-12-29T09:23:25;9.50;99.90
14737;DHT22;7459;53.590;10.062;2023-12-29T09:25:51;9.40;99.90
14737;DHT22;7459;53.590;10.062;2023-12-29T09:28:16;9.30;99.90
14737;DHT22;7459;53.590;10.062;2023-12-29T09:30:42;9.30;99.90
14737;DHT22;7459;53.590;10.062;2023-12-29T09:33:08;9.20;99.90
14737;DHT22;7459;53.590;10.062;2023-12-29T09:35:38;9.00;99.90
14737;DHT22;7459;53.590;10.062;2023-12-29T09:38:04;9.00;99.90
14737;DHT22;7459;53.590;10.062;2023-12-29T09:40:30;9.00;99.90
14737;DHT22;7459;53.590;10.062;2023-12-29T09:42:56;8.90;99.90
14737;DHT22;7459;53.590;10.062;2023-12-29T09:45:25;8.90;99.90
14737;DHT22;7459;53.590;10.062;2023-12-29T09:47:52;8.90;99.90
14737;DHT22;7459;53.590;10.062;2023-12-29T09:50:21;8.80;99.90
14737;DHT22;7459;53.590;10.062;2023-12-29T09:52:48;8.90;99.90
14737;DHT22;7459;53.590;10.062;2023-12-29T09:55:15;9.00;99.90
14737;DHT22;7459;53.590;10.062;2023-12-29T09:57:42;8.90;99.90
14737;DHT22;7459;53.590;10.062;2023-12-29T10:00:10;8.90;99.90
14737;DHT22;7459;53.590;10.062;2023-12-29T10:02:37;8.90;99.90
14737;DHT22;7459;53.590;10.062;2023-12-29T10:05:04;8.90;99.90
14737;DHT22;7459;53.590;10.062;2023-12-29T10:07:34;8.90;99.90
14737;DHT22;7459;53.590;10.062;2023-12-29T10:10:04;8.90;99.90
14737;DHT22;7459;53.590;10.062;2023-12-29T10:12:32;8.90;99.90
14737;DHT22;7459;53.590;10.062;2023-12-29T10:15:12;8.90;99.90
14737;DHT22;7459;53.590;10.062;2023-12-29T10:23:18;9.10;99.90
14737;DHT22;7459;53.590;10.062;2023-12-29T10:25:47;8.90;99.90
14737;DHT22;7459;53.590;10.062;2023-12-29T10:28:13;9.10;99.90
14737;DHT22;7459;53.590;10.062;2023-12-29T10:30:39;9.00;99.90
14737;DHT22;7459;53.590;10.062;2023-12-29T10:33:05;9.00;99.90
14737;DHT22;7459;53.590;10.062;2023-12-29T10:35:31;9.10;99.90
14737;DHT22;7459;53.590;10.062;2023-12-29T10:38:12;9.10;99.90
14737;DHT22;7459;53.590;10.062;2023-12-29T10:40:39;9.20;99.90
14737;DHT22;7459;53.590;10.062;2023-12-29T10:43:05;9.20;99.90
14737;DHT22;7459;53.590;10.062;2023-12-29T10:45:33;9.10;99.90
14737;DHT22;7459;53.590;10.062;2023-12-29T10:48:00;9.20;99.90
14737;DHT22;7459;53.590;10.062;2023-12-29T10:50:27;9.10;99.90
14737;DHT22;7459;53.590;10.062;2023-12-29T10:53:12;9.10;99.90
14737;DHT22;7459;53.590;10.062;2023-12-29T10:55:39;9.30;99.90
14737;DHT22;7459;53.590;10.062;2023-12-29T10:58:05;9.20;99.90
14737;DHT22;7459;53.590;10.062;2023-12-29T11:00:31;9.20;99.90
14737;DHT22;7459;53.590;10.062;2023-12-29T11:02:58;9.20;99.90
14737;DHT22;7459;53.590;10.062;2023-12-29T11:05:25;9.30;99.90
14737;DHT22;7459;53.590;10.062;2023-12-29T11:07:52;9.20;99.90
14737;DHT22;7459;53.590;10.062;2023-12-29T11:10:20;9.20;99.90
14737;DHT22;7459;53.590;10.062;2023-12-29T11:12:47;9.20;99.90
14737;DHT22;7459;53.590;10.062;2023-12-29T11:15:15;9.10;99.90
14737;DHT22;7459;53.590;10.062;2023-12-29T11:17:42;9.30;99.90
14737;DHT22;7459;53.590;10.062;2023-12-29T11:20:16;9.10;99.90
14737;DHT22;7459;53.590;10.062;2023-12-29T11:22:42;9.10;99.90
14737;DHT22;7459;53.590;10.062;2023-12-29T11:25:09;9.20;99.90
14737;DHT22;7459;53.590;10.062;2023-12-29T11:27:35;9.40;99.90
14737;DHT22;7459;53.590;10.062;2023-12-29T11:30:03;9.40;99.90
14737;DHT22;7459;53.590;10.062;2023-12-29T11:32:51;9.40;99.90
14737;DHT22;7459;53.590;10.062;2023-12-29T11:35:26;9.40;99.90
14737;DHT22;7459;53.590;10.062;2023-12-29T11:40:42;9.40;99.90
14737;DHT22;7459;53.590;10.062;2023-12-29T11:43:15;9.40;99.90
14737;DHT22;7459;53.590;10.062;2023-12-29T11:45:42;9.60;99.90
14737;DHT22;7459;53.590;10.062;2023-12-29T11:48:08;9.50;99.90
14737;DHT22;7459;53.590;10.062;2023-12-29T11:50:38;9.40;99.90
14737;DHT22;7459;53.590;10.062;2023-12-29T11:53:06;9.60;99.90
14737;DHT22;7459;53.590;10.062;2023-12-29T11:55:37;9.40;99.90
14737;DHT22;7459;53.590;10.062;2023-12-29T11:58:05;9.50;99.90
14737;DHT22;7459;53.590;10.062;2023-12-29T12:00:49;9.50;99.90
14737;DHT22;7459;53.590;10.062;2023-12-29T12:03:25;9.40;99.90
14737;DHT22;7459;53.590;10.062;2023-12-29T12:05:52;9.40;99.90
14737;DHT22;7459;53.590;10.062;2023-12-29T12:08:36;9.30;99.90
14737;DHT22;7459;53.590;10.062;2023-12-29T12:13:55;9.40;99.90
14737;DHT22;7459;53.590;10.062;2023-12-29T12:19:12;9.50;99.90
14737;DHT22;7459;53.590;10.062;2023-12-29T12:21:38;9.40;99.90
14737;DHT22;7459;53.590;10.062;2023-12-29T12:24:04;9.40;99.90
14737;DHT22;7459;53.590;10.062;2023-12-29T12:26:31;9.50;99.90
14737;DHT22;7459;53.590;10.062;2023-12-29T12:28:58;9.40;99.90
14737;DHT22;7459;53.590;10.062;2023-12-29T12:31:24;9.50;99.90
14737;DHT22;7459;53.590;10.062;2023-12-29T12:33:54;9.50;99.90
14737;DHT22;7459;53.590;10.062;2023-12-29T12:36:23;9.60;99.90
14737;DHT22;7459;53.590;10.062;2023-12-29T12:38:57;9.60;99.90
14737;DHT22;7459;53.590;10.062;2023-12-29T12:41:24;9.70;99.90
14737;DHT22;7459;53.590;10.062;2023-12-29T12:44:11;9.70;99.90
14737;DHT22;7459;53.590;10.062;2023-12-29T12:46:51;9.80;99.90
14737;DHT22;7459;53.590;10.062;2023-12-29T12:49:22;9.70;99.90
14737;DHT22;7459;53.590;10.062;2023-12-29T12:51:48;9.70;99.90
14737;DHT22;7459;53.590;10.062;2023-12-29T12:54:18;9.70;99.90
14737;DHT22;7459;53.590;10.062;2023-12-29T12:56:47;9.70;99.90
14737;DHT22;7459;53.590;10.062;2023-12-29T12:59:13;9.70;99.90
14737;DHT22;7459;53.590;10.062;2023-12-29T13:01:40;9.70;99.90
14737;DHT22;7459;53.590;10.062;2023-12-29T13:04:06;9.70;99.90
14737;DHT22;7459;53.590;10.062;2023-12-29T13:06:34;9.70;99.90
14737;DHT22;7459;53.590;10.062;2023-12-29T13:09:01;9.70;99.90
14737;DHT22;7459;53.590;10.062;2023-12-29T13:11:28;9.70;99.90
14737;DHT22;7459;53.590;10.062;2023-12-29T13:13:53;9.60;99.90
14737;DHT22;7459;53.590;10.062;2023-12-29T13:16:29;9.60;99.90
14737;DHT22;7459;53.590;10.062;2023-12-29T13:18:55;9.70;99.90
14737;DHT22;7459;53.590;10.062;2023-12-29T13:21:21;9.60;99.90
14737;DHT22;7459;53.590;10.062;2023-12-29T13:23:47;9.60;99.90
14737;DHT22;7459;53.590;10.062;2023-12-29T13:26:13;9.60;99.90
14737;DHT22;7459;53.590;10.062;2023-12-29T13:28:40;9.60;99.90
14737;DHT22;7459;53.590;10.062;2023-12-29T13:31:09;9.50;99.90
14737;DHT22;7459;53.590;10.062;2023-12-29T13:33:51;9.50;99.90
14737;DHT22;7459;53.590;10.062;2023-12-29T13:36:36;9.60;99.90
14737;DHT22;7459;53.590;10.062;2023-12-29T13:39:41;9.50;99.90
14737;DHT22;7459;53.590;10.062;2023-12-29T13:42:09;9.50;99.90
14737;DHT22;7459;53.590;10.062;2023-12-29T13:44:38;9.50;99.90
14737;DHT22;7459;53.590;10.062;2023-12-29T13:47:05;9.40;99.90
14737;DHT22;7459;53.590;10.062;2023-12-29T13:49:31;9.50;99.90
14737;DHT22;7459;53.590;10.062;2023-12-29T13:52:03;9.40;99.90
14737;DHT22;7459;53.590;10.062;2023-12-29T13:54:29;9.30;99.90
14737;DHT22;7459;53.590;10.062;2023-12-29T13:56:55;9.30;99.90
14737;DHT22;7459;53.590;10.062;2023-12-29T13:59:30;9.20;99.90
14737;DHT22;7459;53.590;10.062;2023-12-29T14:02:20;9.20;99.90
14737;DHT22;7459;53.590;10.062;2023-12-29T14:04:48;9.20;99.90
14737;DHT22;7459;53.590;10.062;2023-12-29T14:07:14;9.20;99.90
14737;DHT22;7459;53.590;10.062;2023-12-29T14:09:44;9.10;99.90
14737;DHT22;7459;53.590;10.062;2023-12-29T14:12:10;9.30;99.90
14737;DHT22;7459;53.590;10.062;2023-12-29T14:14:36;9.10;99.90
14737;DHT22;7459;53.590;10.062;2023-12-29T14:17:02;9.20;99.90
14737;DHT22;7459;53.590;10.062;2023-12-29T14:19:34;9.20;99.90
14737;DHT22;7459;53.590;10.062;2023-12-29T14:22:01;9.20;99.90
14737;DHT22;7459;53.590;10.062;2023-12-29T14:24:28;9.20;99.90
14737;DHT22;7459;53.590;10.062;2023-12-29T14:26:56;9.20;99.90
14737;DHT22;7459;53.590;10.062;2023-12-29T14:29:24;9.20;99.90
14737;DHT22;7459;53.590;10.062;2023-12-29T14:31:51;9.20;99.90
14737;DHT22;7459;53.590;10.062;2023-12-29T14:34:17;9.20;99.90
14737;DHT22;7459;53.590;10.062;2023-12-29T14:36:44;9.10;99.90
14737;DHT22;7459;53.590;10.062;2023-12-29T14:39:11;9.20;99.90
14737;DHT22;7459;53.590;10.062;2023-12-29T14:41:37;9.20;99.90
14737;DHT22;7459;53.590;10.062;2023-12-29T14:44:02;9.20;99.90
14737;DHT22;7459;53.590;10.062;2023-12-29T14:46:28;9.20;99.90
14737;DHT22;7459;53.590;10.062;2023-12-29T14:48:57;9.30;99.90
14737;DHT22;7459;53.590;10.062;2023-12-29T14:51:24;9.20;99.90
14737;DHT22;7459;53.590;10.062;2023-12-29T14:53:50;9.20;99.90
14737;DHT22;7459;53.590;10.062;2023-12-29T14:56:17;9.10;99.90
14737;DHT22;7459;53.590;10.062;2023-12-29T14:58:43;9.20;99.90
14737;DHT22;7459;53.590;10.062;2023-12-29T15:01:10;9.20;99.90
14737;DHT22;7459;53.590;10.062;2023-12-29T15:03:36;9.10;99.90
14737;DHT22;7459;53.590;10.062;2023-12-29T15:06:03;9.10;99.90
14737;DHT22;7459;53.590;10.062;2023-12-29T15:08:29;9.20;99.90
14737;DHT22;7459;53.590;10.062;2023-12-29T15:11:03;9.20;99.90
14737;DHT22;7459;53.590;10.062;2023-12-29T15:13:30;9.20;99.90
14737;DHT22;7459;53.590;10.062;2023-12-29T15:16:00;9.20;99.90
14737;DHT22;7459;53.590;10.062;2023-12-29T15:18:27;9.20;99.90
14737;DHT22;7459;53.590;10.062;2023-12-29T15:20:55;9.10;99.90
14737;DHT22;7459;53.590;10.062;2023-12-29T15:23:21;9.10;99.90
14737;DHT22;7459;53.590;10.062;2023-12-29T15:25:48;9.20;99.90
14737;DHT22;7459;53.590;10.062;2023-12-29T15:28:15;9.20;99.90
14737;DHT22;7459;53.590;10.062;2023-12-29T15:30:42;9.20;99.90
14737;DHT22;7459;53.590;10.062;2023-12-29T15:33:09;9.20;99.90
14737;DHT22;7459;53.590;10.062;2023-12-29T15:35:34;9.20;99.90
14737;DHT22;7459;53.590;10.062;2023-12-29T15:38:00;9.20;99.90
14737;DHT22;7459;53.590;10.062;2023-12-29T15:40:26;9.20;99.90
14737;DHT22;7459;53.590;10.062;2023-12-29T15:42:51;9.20;99.90
14737;DHT22;7459;53.590;10.062;2023-12-29T15:45:17;9.20;99.90
14737;DHT22;7459;53.590;10.062;2023-12-29T15:47:44;9.20;99.90
14737;DHT22;7459;53.590;10.062;2023-12-29T15:50:10;9.20;99.90
14737;DHT22;7459;53.590;10.062;2023-12-29T15:52:36;9.20;99.90
14737;DHT22;7459;53.590;10.062;2023-12-29T15:55:01;9.20;99.90
14737;DHT22;7459;53.590;10.062;2023-12-29T15:57:27;9.20;99.90
14737;DHT22;7459;53.590;10.062;2023-12-29T15:59:53;9.20;99.90
14737;DHT22;7459;53.590;10.062;2023-12-29T16:02:18;9.20;99.90